createdAt,value
2023-02-27T00:00:33.787Z,99429.60
2023-02-27T00:03:21.593Z,99430.00
2023-02-27T00:05:49.292Z,99431.80
2023-02-27T00:08:16.975Z,99429.40
2023-02-27T00:10:44.898Z,99436.60
2023-02-27T00:13:12.653Z,99437.00
2023-02-27T00:15:41.061Z,99433.60
2023-02-27T00:18:08.869Z,99427.00
2023-02-27T00:20:38.381Z,99431.40
2023-02-27T00:23:06.889Z,99427.80
2023-02-27T00:25:35.507Z,99429.40
2023-02-27T00:28:04.405Z,99427.00
2023-02-27T00:30:32.184Z,99425.60
2023-02-27T00:33:00.038Z,99425.80
2023-02-27T00:35:28.119Z,99430.80
2023-02-27T00:37:56.053Z,99428.80
2023-02-27T00:40:25.549Z,99427.40
2023-02-27T00:42:53.830Z,99429.80
2023-02-27T00:45:21.723Z,99425.80
2023-02-27T00:47:49.450Z,99426.00
2023-02-27T00:50:17.340Z,99431.60
2023-02-27T00:52:45.132Z,99433.00
2023-02-27T00:55:13.176Z,99427.80
2023-02-27T00:57:41.282Z,99431.60
2023-02-27T01:00:10.661Z,99431.60
2023-02-27T01:02:39.052Z,99433.20
2023-02-27T01:05:07.455Z,99427.20
2023-02-27T01:07:35.160Z,99436.60
2023-02-27T01:10:05.089Z,99437.40
2023-02-27T01:12:33.113Z,99434.00
2023-02-27T01:15:00.780Z,99435.00
2023-02-27T01:17:28.604Z,99432.00
2023-02-27T01:19:56.300Z,99440.40
2023-02-27T01:22:24.628Z,99444.20
2023-02-27T01:24:52.434Z,99445.20
2023-02-27T01:27:20.073Z,99450.40
2023-02-27T01:29:47.753Z,99445.40
2023-02-27T01:32:15.470Z,99450.40
2023-02-27T01:34:43.292Z,99455.40
2023-02-27T01:37:11.091Z,99462.60
2023-02-27T01:39:38.888Z,99460.80
2023-02-27T01:42:20.877Z,99458.60
2023-02-27T01:45:21.087Z,99464.60
2023-02-27T01:47:56.351Z,99469.20
2023-02-27T01:50:25.443Z,99475.00
2023-02-27T01:52:59.871Z,99476.00
2023-02-27T01:55:33.492Z,99474.00
2023-02-27T01:58:01.328Z,99473.60
2023-02-27T02:00:29.035Z,99477.20
2023-02-27T02:03:14.248Z,99487.60
2023-02-27T02:05:44.817Z,99482.80
2023-02-27T02:08:18.519Z,99487.40
2023-02-27T02:10:50.284Z,99489.40
2023-02-27T02:13:22.591Z,99494.20
2023-02-27T02:16:35.717Z,99500.80
2023-02-27T02:19:30.347Z,99501.60
2023-02-27T02:22:36.740Z,99504.60
2023-02-27T02:25:47.644Z,99507.60
2023-02-27T02:28:37.380Z,99500.00
2023-02-27T02:31:57.504Z,99509.60
2023-02-27T02:34:31.119Z,99506.20
2023-02-27T02:38:02.648Z,99513.40
2023-02-27T02:40:55.856Z,99519.40
2023-02-27T02:44:02.317Z,99522.20
2023-02-27T02:47:00.330Z,99521.00
2023-02-27T02:49:57.567Z,99521.60
2023-02-27T02:52:56.164Z,99530.40
2023-02-27T02:55:54.986Z,99530.80
2023-02-27T02:58:33.463Z,99535.80
2023-02-27T03:01:26.636Z,99539.80
2023-02-27T03:04:07.022Z,99544.60
2023-02-27T03:06:43.276Z,99554.60
2023-02-27T03:09:29.730Z,99551.20
2023-02-27T03:12:01.078Z,99558.20
2023-02-27T03:14:44.723Z,99558.20
2023-02-27T03:17:29.528Z,99557.60
2023-02-27T03:20:04.429Z,99563.40
2023-02-27T03:22:40.079Z,99561.80
2023-02-27T03:25:14.288Z,99565.80
2023-02-27T03:28:09.436Z,99564.80
2023-02-27T03:30:45.383Z,99566.00
2023-02-27T03:33:31.247Z,99567.80
2023-02-27T03:36:13.019Z,99570.80
2023-02-27T03:38:51.300Z,99571.40
2023-02-27T03:41:50.167Z,99575.40
2023-02-27T03:44:49.212Z,99576.00
2023-02-27T03:47:17.589Z,99573.40
2023-02-27T03:49:45.422Z,99577.40
2023-02-27T03:52:13.158Z,99573.20
2023-02-27T03:54:53.395Z,99574.40
2023-02-27T03:57:21.399Z,99571.60
2023-02-27T03:59:49.822Z,99570.60
2023-02-27T04:02:17.744Z,99561.80
2023-02-27T04:04:45.599Z,99562.60
2023-02-27T04:07:47.697Z,99562.80
2023-02-27T04:10:39.874Z,99559.80
2023-02-27T04:13:29.955Z,99566.20
2023-02-27T04:16:35.909Z,99567.60
2023-02-27T04:19:37.658Z,99572.60
2023-02-27T04:22:35.082Z,99568.80
2023-02-27T04:25:34.747Z,99568.20
2023-02-27T04:28:08.439Z,99571.80
2023-02-27T04:30:54.215Z,99576.20
2023-02-27T04:33:33.875Z,99578.00
2023-02-27T04:36:33.133Z,99585.60
2023-02-27T04:39:18.165Z,99580.20
2023-02-27T04:42:00.953Z,99582.80
2023-02-27T04:44:33.389Z,99593.40
2023-02-27T04:47:05.652Z,99597.60
2023-02-27T04:49:42.355Z,99597.00
2023-02-27T04:52:30.030Z,99595.60
2023-02-27T04:55:24.339Z,99595.60
2023-02-27T04:58:03.004Z,99596.00
2023-02-27T05:00:35.132Z,99597.60
2023-02-27T05:03:14.384Z,99598.20
2023-02-27T05:05:46.234Z,99607.00
2023-02-27T05:08:46.773Z,99606.60
2023-02-27T05:11:28.789Z,99607.40
2023-02-27T05:14:42.555Z,99606.00
2023-02-27T05:17:20.962Z,99609.00
2023-02-27T05:19:49.685Z,99610.20
2023-02-27T05:22:45.294Z,99615.40
2023-02-27T05:25:26.950Z,99616.00
2023-02-27T05:28:04.956Z,99621.40
2023-02-27T05:30:57.483Z,99624.80
2023-02-27T05:33:35.507Z,99632.20
2023-02-27T05:36:10.596Z,99633.60
2023-02-27T05:38:49.683Z,99641.20
2023-02-27T05:41:29.928Z,99638.60
2023-02-27T05:44:22.808Z,99645.00
2023-02-27T05:47:08.151Z,99644.00
2023-02-27T05:49:45.730Z,99648.80
2023-02-27T05:52:21.840Z,99646.20
2023-02-27T05:55:06.748Z,99650.80
2023-02-27T05:57:45.546Z,99653.20
2023-02-27T06:00:49.401Z,99653.80
2023-02-27T06:03:18.037Z,99653.20
2023-02-27T06:05:47.290Z,99647.00
2023-02-27T06:08:16.278Z,99663.20
2023-02-27T06:10:43.970Z,99661.60
2023-02-27T06:13:12.036Z,99666.80
2023-02-27T06:15:39.717Z,99665.40
2023-02-27T06:18:07.348Z,99669.00
2023-02-27T06:20:35.086Z,99668.20
2023-02-27T06:23:02.881Z,99669.40
2023-02-27T06:25:31.258Z,99676.20
2023-02-27T06:27:59.160Z,99682.60
2023-02-27T06:30:27.372Z,99682.00
2023-02-27T06:32:55.386Z,99686.00
2023-02-27T06:35:23.908Z,99685.40
2023-02-27T06:37:51.623Z,99686.00
2023-02-27T06:40:19.371Z,99689.00
2023-02-27T06:42:47.150Z,99691.80
2023-02-27T06:45:16.554Z,99693.80
2023-02-27T06:47:44.593Z,99695.60
2023-02-27T06:50:14.326Z,99694.00
2023-02-27T06:52:42.186Z,99698.20
2023-02-27T06:55:11.260Z,99697.40
2023-02-27T06:57:39.262Z,99700.40
2023-02-27T07:00:08.263Z,99703.00
2023-02-27T07:02:35.934Z,99704.00
2023-02-27T07:05:08.240Z,99707.80
2023-02-27T07:07:38.743Z,99711.00
2023-02-27T07:10:13.480Z,99711.80
2023-02-27T07:12:42.107Z,99717.20
2023-02-27T07:15:11.247Z,99708.20
2023-02-27T07:17:39.480Z,99711.60
2023-02-27T07:20:10.668Z,99713.40
2023-02-27T07:22:40.970Z,99716.00
2023-02-27T07:25:09.726Z,99717.80
2023-02-27T07:27:37.883Z,99721.40
2023-02-27T07:30:06.923Z,99725.40
2023-02-27T07:32:34.985Z,99729.40
2023-02-27T07:35:04.059Z,99727.00
2023-02-27T07:37:32.010Z,99727.20
2023-02-27T07:39:59.890Z,99730.40
2023-02-27T07:42:27.704Z,99731.80
2023-02-27T07:44:55.433Z,99730.40
2023-02-27T07:47:23.773Z,99727.60
2023-02-27T07:49:52.599Z,99731.80
2023-02-27T07:52:20.472Z,99728.60
2023-02-27T07:54:48.280Z,99738.40
2023-02-27T07:57:16.044Z,99741.80
2023-02-27T07:59:43.943Z,99740.40
2023-02-27T08:02:12.599Z,99747.60
2023-02-27T08:04:40.409Z,99751.80
2023-02-27T08:07:08.280Z,99756.80
2023-02-27T08:09:36.621Z,99759.80
2023-02-27T08:12:06.584Z,99762.20
2023-02-27T08:14:34.466Z,99761.80
2023-02-27T08:17:02.237Z,99759.20
2023-02-27T08:19:30.082Z,99760.20
2023-02-27T08:21:57.840Z,99766.00
2023-02-27T08:24:25.776Z,99760.20
2023-02-27T08:26:53.465Z,99760.20
2023-02-27T08:29:21.377Z,99758.60
2023-02-27T08:31:49.382Z,99758.80
2023-02-27T08:34:17.400Z,99768.60
2023-02-27T08:36:45.627Z,99766.60
2023-02-27T08:39:13.500Z,99772.20
2023-02-27T08:41:41.922Z,99765.40
2023-02-27T08:44:13.022Z,99775.00
2023-02-27T08:46:40.739Z,99767.60
2023-02-27T08:49:08.544Z,99774.40
2023-02-27T08:51:36.168Z,99776.20
2023-02-27T08:54:04.533Z,99781.20
2023-02-27T08:56:34.500Z,99777.00
2023-02-27T08:59:02.835Z,99784.00
2023-02-27T09:01:34.506Z,99789.20
2023-02-27T09:04:05.525Z,99793.20
2023-02-27T09:06:36.547Z,99791.60
2023-02-27T09:09:05.706Z,99800.40
2023-02-27T09:11:33.719Z,99801.80
2023-02-27T09:14:01.452Z,99800.40
2023-02-27T09:16:29.460Z,99801.00
2023-02-27T09:18:57.646Z,99805.00
2023-02-27T09:21:25.532Z,99815.20
2023-02-27T09:23:53.356Z,99814.20
2023-02-27T09:26:28.942Z,99812.00
2023-02-27T09:29:03.976Z,99816.80
2023-02-27T09:31:33.409Z,99813.00
2023-02-27T09:34:01.697Z,99822.00
2023-02-27T09:36:29.704Z,99826.80
2023-02-27T09:38:59.517Z,99823.60
2023-02-27T09:42:28.678Z,99821.20
2023-02-27T09:45:05.474Z,99819.00
2023-02-27T09:47:50.464Z,99829.40
2023-02-27T09:50:31.865Z,99830.20
2023-02-27T09:53:00.938Z,99827.60
2023-02-27T09:55:36.723Z,99831.60
2023-02-27T09:58:34.866Z,99833.60
2023-02-27T10:01:30.494Z,99833.20
2023-02-27T10:04:25.436Z,99827.80
2023-02-27T10:07:13.956Z,99829.20
2023-02-27T10:10:04.928Z,99832.80
2023-02-27T10:13:07.930Z,99826.20
2023-02-27T10:15:46.948Z,99821.40
2023-02-27T10:18:29.047Z,99819.40
2023-02-27T10:21:07.572Z,99815.40
2023-02-27T10:23:56.687Z,99815.60
2023-02-27T10:26:30.356Z,99808.60
2023-02-27T10:29:10.723Z,99810.80
2023-02-27T10:31:38.965Z,99810.60
2023-02-27T10:34:12.917Z,99805.40
2023-02-27T10:36:41.085Z,99809.40
2023-02-27T10:39:16.900Z,99809.40
2023-02-27T10:41:46.791Z,99804.20
2023-02-27T10:44:18.817Z,99802.80
2023-02-27T10:46:50.607Z,99802.00
2023-02-27T10:49:22.061Z,99807.20
2023-02-27T10:52:11.379Z,99797.80
2023-02-27T10:54:41.859Z,99806.80
2023-02-27T10:57:42.304Z,99802.00
2023-02-27T11:00:55.409Z,99809.20
2023-02-27T11:03:41.129Z,99800.80
2023-02-27T11:06:23.816Z,99806.20
2023-02-27T11:09:21.224Z,99804.80
2023-02-27T11:11:53.480Z,99808.40
2023-02-27T11:14:33.761Z,99806.80
2023-02-27T11:17:03.359Z,99801.00
2023-02-27T11:19:40.139Z,99805.60
2023-02-27T11:22:21.309Z,99797.20
2023-02-27T11:24:49.789Z,99795.40
2023-02-27T11:27:29.296Z,99790.00
2023-02-27T11:30:06.659Z,99792.60
2023-02-27T11:32:45.855Z,99789.60
2023-02-27T11:35:36.919Z,99784.40
2023-02-27T11:38:16.978Z,99791.00
2023-02-27T11:40:55.553Z,99788.20
2023-02-27T11:43:49.695Z,99787.40
2023-02-27T11:46:36.468Z,99792.20
2023-02-27T11:49:37.393Z,99796.40
2023-02-27T11:52:27.145Z,99799.40
2023-02-27T11:55:00.747Z,99798.00
2023-02-27T11:57:38.509Z,99798.60
2023-02-27T12:00:33.066Z,99796.20
2023-02-27T12:03:26.096Z,99795.80
2023-02-27T12:05:59.963Z,99808.00
2023-02-27T12:08:44.293Z,99796.40
2023-02-27T12:11:32.891Z,99802.20
2023-02-27T12:14:23.628Z,99791.40
2023-02-27T12:17:01.671Z,99797.20
2023-02-27T12:19:37.673Z,99798.00
2023-02-27T12:22:35.685Z,99798.00
2023-02-27T12:25:29.689Z,99803.40
2023-02-27T12:28:54.842Z,99806.20
2023-02-27T12:31:39.805Z,99807.40
2023-02-27T12:34:16.183Z,99801.20
2023-02-27T12:36:44.683Z,99809.80
2023-02-27T12:39:23.250Z,99810.80
2023-02-27T12:42:28.684Z,99816.40
2023-02-27T12:45:11.119Z,99823.20
2023-02-27T12:48:21.148Z,99817.20
2023-02-27T12:51:46.240Z,99821.40
2023-02-27T12:54:51.475Z,99823.00
2023-02-27T12:57:44.971Z,99822.40
2023-02-27T13:00:29.066Z,99830.40
2023-02-27T13:03:09.976Z,99837.80
2023-02-27T13:06:07.593Z,99843.60
2023-02-27T13:08:57.004Z,99850.80
2023-02-27T13:12:21.590Z,99858.60
2023-02-27T13:15:06.297Z,99853.20
2023-02-27T13:17:49.434Z,99859.20
2023-02-27T13:20:49.991Z,99856.40
2023-02-27T13:23:37.810Z,99848.00
2023-02-27T13:26:20.768Z,99844.20
2023-02-27T13:28:50.820Z,99840.60
2023-02-27T13:31:42.634Z,99847.60
2023-02-27T13:34:30.514Z,99845.80
2023-02-27T13:37:05.559Z,99853.80
2023-02-27T13:39:45.957Z,99847.40
2023-02-27T13:42:33.977Z,99844.00
2023-02-27T13:45:45.016Z,99837.60
2023-02-27T13:48:43.736Z,99835.80
2023-02-27T13:51:38.446Z,99833.80
2023-02-27T13:54:15.386Z,99839.40
2023-02-27T13:56:57.583Z,99838.60
2023-02-27T13:59:33.350Z,99835.40
2023-02-27T14:02:31.021Z,99838.00
2023-02-27T14:05:03.834Z,99833.80
2023-02-27T14:08:05.371Z,99840.20
2023-02-27T14:10:37.420Z,99840.40
2023-02-27T14:13:45.018Z,99839.80
2023-02-27T14:16:39.799Z,99846.80
2023-02-27T14:19:17.350Z,99849.00
2023-02-27T14:21:51.222Z,99853.80
2023-02-27T14:24:26.237Z,99856.00
2023-02-27T14:26:55.003Z,99859.40
2023-02-27T14:29:33.395Z,99862.80
2023-02-27T14:32:08.869Z,99861.00
2023-02-27T14:34:40.721Z,99867.40
2023-02-27T14:37:17.997Z,99877.00
2023-02-27T14:39:50.832Z,99869.60
2023-02-27T14:42:44.297Z,99870.20
2023-02-27T14:45:24.288Z,99878.80
2023-02-27T14:47:53.226Z,99877.80
2023-02-27T14:50:29.812Z,99884.80
2023-02-27T14:52:57.960Z,99887.00
2023-02-27T14:55:32.716Z,99884.80
2023-02-27T14:58:21.796Z,99891.00
2023-02-27T15:00:55.764Z,99891.60
2023-02-27T15:03:35.716Z,99891.60
2023-02-27T15:06:14.342Z,99897.80
2023-02-27T15:08:48.746Z,99901.40
2023-02-27T15:11:22.242Z,99900.60
2023-02-27T15:14:02.064Z,99905.00
2023-02-27T15:16:37.308Z,99909.40
2023-02-27T15:19:28.194Z,99910.60
2023-02-27T15:22:00.403Z,99916.60
2023-02-27T15:24:49.807Z,99913.20
2023-02-27T15:27:22.873Z,99913.40
2023-02-27T15:29:58.095Z,99916.60
2023-02-27T15:32:30.278Z,99920.40
2023-02-27T15:35:03.661Z,99917.20
2023-02-27T15:37:34.432Z,99925.40
2023-02-27T15:40:02.565Z,99926.20
2023-02-27T15:42:36.440Z,99926.20
2023-02-27T15:45:06.879Z,99928.80
2023-02-27T15:47:35.989Z,99933.40
2023-02-27T15:50:15.793Z,99935.20
2023-02-27T15:53:10.221Z,99946.60
2023-02-27T15:55:46.826Z,99938.80
2023-02-27T15:58:28.507Z,99942.60
2023-02-27T16:01:13.952Z,99943.00
2023-02-27T16:03:47.737Z,99952.20
2023-02-27T16:06:25.074Z,99959.40
2023-02-27T16:08:57.786Z,99965.60
2023-02-27T16:11:29.801Z,99965.00
2023-02-27T16:13:58.350Z,99967.80
2023-02-27T16:16:32.605Z,99971.60
2023-02-27T16:19:26.249Z,99972.40
2023-02-27T16:22:13.273Z,99971.00
2023-02-27T16:24:42.956Z,99977.00
2023-02-27T16:27:24.625Z,99974.40
2023-02-27T16:29:56.214Z,99977.00
2023-02-27T16:32:26.393Z,99984.80
2023-02-27T16:35:19.121Z,99987.80
2023-02-27T16:37:49.341Z,99993.00
2023-02-27T16:40:24.338Z,99983.60
2023-02-27T16:42:53.391Z,99983.20
2023-02-27T16:45:28.487Z,99986.00
2023-02-27T16:48:00.207Z,99989.20
2023-02-27T16:50:33.543Z,99991.80
2023-02-27T16:53:01.422Z,99994.20
2023-02-27T16:55:33.548Z,99995.60
2023-02-27T16:58:01.608Z,99996.40
2023-02-27T17:00:29.632Z,100005.00
2023-02-27T17:02:57.367Z,100000.00
2023-02-27T17:05:26.381Z,100005.80
2023-02-27T17:07:54.145Z,100005.60
2023-02-27T17:10:24.742Z,100010.80
2023-02-27T17:12:52.791Z,100003.60
2023-02-27T17:15:20.919Z,100007.40
2023-02-27T17:17:48.720Z,100006.80
2023-02-27T17:20:16.436Z,100013.00
2023-02-27T17:22:45.143Z,100012.40
2023-02-27T17:25:14.044Z,100020.00
2023-02-27T17:27:43.752Z,100016.20
2023-02-27T17:30:13.407Z,100018.40
2023-02-27T17:32:41.250Z,100017.40
2023-02-27T17:35:10.154Z,100016.60
2023-02-27T17:37:38.148Z,100025.20
2023-02-27T17:40:08.218Z,100033.80
2023-02-27T17:42:37.192Z,100033.40
2023-02-27T17:45:07.654Z,100031.80
2023-02-27T17:47:36.033Z,100029.60
2023-02-27T17:50:05.394Z,100030.20
2023-02-27T17:52:37.013Z,100037.20
2023-02-27T17:55:08.642Z,100037.40
2023-02-27T17:57:38.823Z,100037.20
2023-02-27T18:00:10.596Z,100040.00
2023-02-27T18:02:38.328Z,100046.20
2023-02-27T18:05:07.552Z,100041.20
2023-02-27T18:07:35.555Z,100040.80
2023-02-27T18:10:06.017Z,100041.40
2023-02-27T18:12:34.239Z,100048.60
2023-02-27T18:15:02.529Z,100047.00
2023-02-27T18:17:30.220Z,100053.80
2023-02-27T18:19:58.209Z,100051.20
2023-02-27T18:22:26.575Z,100057.20
2023-02-27T18:24:55.961Z,100062.40
2023-02-27T18:27:23.985Z,100067.40
2023-02-27T18:29:51.800Z,100067.00
2023-02-27T18:32:19.869Z,100062.40
2023-02-27T18:34:47.668Z,100060.40
2023-02-27T18:37:15.585Z,100068.00
2023-02-27T18:39:44.192Z,100067.40
2023-02-27T18:42:11.971Z,100073.60
2023-02-27T18:44:41.440Z,100073.00
2023-02-27T18:47:09.777Z,100076.20
2023-02-27T18:49:38.073Z,100087.60
2023-02-27T18:52:06.009Z,100088.40
2023-02-27T18:54:33.886Z,100088.40
2023-02-27T18:57:01.746Z,100086.60
2023-02-27T18:59:29.566Z,100091.40
2023-02-27T19:01:58.047Z,100092.00
2023-02-27T19:04:25.896Z,100092.60
2023-02-27T19:06:53.731Z,100100.80
2023-02-27T19:09:22.328Z,100096.60
2023-02-27T19:11:50.169Z,100098.40
2023-02-27T19:14:18.141Z,100104.20
2023-02-27T19:16:46.479Z,100106.60
2023-02-27T19:19:14.456Z,100107.60
2023-02-27T19:21:43.105Z,100106.60
2023-02-27T19:24:13.600Z,100109.00
2023-02-27T19:26:41.486Z,100109.40
2023-02-27T19:29:09.546Z,100108.80
2023-02-27T19:31:37.374Z,100115.60
2023-02-27T19:34:05.350Z,100114.00
2023-02-27T19:36:34.800Z,100120.40
2023-02-27T19:39:04.425Z,100114.00
2023-02-27T19:41:33.622Z,100118.40
2023-02-27T19:44:01.637Z,100118.20
2023-02-27T19:46:33.858Z,100120.00
2023-02-27T19:49:05.920Z,100125.60
2023-02-27T19:51:34.227Z,100126.60
2023-02-27T19:54:02.186Z,100127.40
2023-02-27T19:56:30.477Z,100132.80
2023-02-27T19:59:00.820Z,100134.60
2023-02-27T20:01:36.332Z,100135.40
2023-02-27T20:04:05.123Z,100136.60
2023-02-27T20:06:42.210Z,100134.40
2023-02-27T20:09:15.307Z,100135.80
2023-02-27T20:11:45.254Z,100130.40
2023-02-27T20:14:16.612Z,100136.00
2023-02-27T20:16:45.369Z,100140.60
2023-02-27T20:19:18.674Z,100141.80
2023-02-27T20:21:47.837Z,100141.20
2023-02-27T20:24:18.069Z,100142.60
2023-02-27T20:26:52.385Z,100147.20
2023-02-27T20:29:24.722Z,100152.00
2023-02-27T20:31:55.749Z,100148.00
2023-02-27T20:34:26.405Z,100150.60
2023-02-27T20:36:56.091Z,100158.20
2023-02-27T20:39:24.434Z,100154.60
2023-02-27T20:41:52.122Z,100154.80
2023-02-27T20:44:19.863Z,100153.60
2023-02-27T20:46:49.326Z,100155.80
2023-02-27T20:49:18.328Z,100152.40
2023-02-27T20:51:46.516Z,100151.80
2023-02-27T20:54:20.285Z,100159.60
2023-02-27T20:56:54.430Z,100160.20
2023-02-27T20:59:25.223Z,100152.40
2023-02-27T21:01:54.867Z,100152.00
2023-02-27T21:04:42.679Z,100156.80
2023-02-27T21:07:14.303Z,100157.40
2023-02-27T21:09:42.207Z,100158.40
2023-02-27T21:12:10.978Z,100162.60
2023-02-27T21:14:39.638Z,100163.80
2023-02-27T21:17:07.407Z,100165.20
2023-02-27T21:19:35.460Z,100166.00
2023-02-27T21:22:03.784Z,100169.40
2023-02-27T21:24:32.175Z,100168.60
2023-02-27T21:26:59.895Z,100175.20
2023-02-27T21:29:27.644Z,100166.80
2023-02-27T21:31:55.409Z,100170.80
2023-02-27T21:34:27.688Z,100172.80
2023-02-27T21:36:55.973Z,100176.80
2023-02-27T21:39:28.255Z,100183.00
2023-02-27T21:41:56.446Z,100180.60
2023-02-27T21:44:25.259Z,100184.00
2023-02-27T21:46:55.951Z,100186.40
2023-02-27T21:49:29.066Z,100183.60
2023-02-27T21:51:57.108Z,100178.40
2023-02-27T21:54:24.956Z,100182.80
2023-02-27T21:56:52.750Z,100176.80
2023-02-27T21:59:21.604Z,100175.60
2023-02-27T22:01:49.449Z,100179.00
2023-02-27T22:04:19.983Z,100177.80
2023-02-27T22:06:50.215Z,100182.20
2023-02-27T22:09:18.361Z,100186.20
2023-02-27T22:11:47.493Z,100192.40
2023-02-27T22:14:15.953Z,100187.20
2023-02-27T22:16:43.899Z,100184.40
2023-02-27T22:19:19.792Z,100182.80
2023-02-27T22:21:48.472Z,100177.60
2023-02-27T22:24:16.382Z,100181.40
2023-02-27T22:26:45.717Z,100186.20
2023-02-27T22:29:13.980Z,100185.20
2023-02-27T22:31:41.781Z,100181.40
2023-02-27T22:34:18.474Z,100188.20
2023-02-27T22:36:48.774Z,100182.80
2023-02-27T22:39:16.639Z,100183.00
2023-02-27T22:41:46.040Z,100181.60
2023-02-27T22:44:16.592Z,100186.60
2023-02-27T22:46:49.841Z,100187.60
2023-02-27T22:49:21.840Z,100186.20
2023-02-27T22:51:52.046Z,100193.80
2023-02-27T22:54:22.596Z,100191.20
2023-02-27T22:56:52.731Z,100193.60
2023-02-27T22:59:21.470Z,100190.80
2023-02-27T23:01:50.374Z,100187.80
2023-02-27T23:04:18.790Z,100191.80
2023-02-27T23:06:46.755Z,100201.40
2023-02-27T23:09:19.322Z,100198.60
2023-02-27T23:11:47.685Z,100193.80
2023-02-27T23:14:16.589Z,100200.60
2023-02-27T23:16:45.569Z,100200.00
2023-02-27T23:19:18.179Z,100201.40
2023-02-27T23:21:46.091Z,100203.60
2023-02-27T23:24:18.132Z,100198.00
2023-02-27T23:26:50.625Z,100199.00
2023-02-27T23:29:19.132Z,100201.80
2023-02-27T23:31:47.111Z,100197.60
2023-02-27T23:34:15.047Z,100201.40
2023-02-27T23:36:42.738Z,100194.00
2023-02-27T23:39:10.530Z,100197.40
2023-02-27T23:41:38.310Z,100205.20
2023-02-27T23:44:25.000Z,100201.80
2023-02-27T23:46:52.972Z,100208.40
2023-02-27T23:49:20.816Z,100214.20
2023-02-27T23:51:48.525Z,100215.00
2023-02-27T23:54:16.196Z,100216.60
2023-02-27T23:56:46.762Z,100217.60
2023-02-27T23:59:14.646Z,100215.20
